Time;durP1;ratioP1;P1;durP2;ratioP2;P2;SDS_P1;SDS_P2;PMS_P1;PMS_P2;Temp;Humidity;BMP_temperature;BMP_pressure;BME280_temperature;BME280_humidity;BME280_pressure;Samples;Min_cycle;Max_cycle;Signal;HPM_P1;HPM_P2
2023/10/24 00:00:09;;;;;;;3.10;2.00;;;12.20;99.90;;;;;;5070984;28;20180;-71
2023/10/24 00:02:35;;;;;;;2.93;2.27;;;12.10;99.90;;;;;;5070688;28;20207;-71
2023/10/24 00:05:00;;;;;;;5.57;2.13;;;12.10;99.90;;;;;;5069319;28;20461;-71
2023/10/24 00:07:26;;;;;;;3.83;1.80;;;12.10;99.90;;;;;;5070588;28;20704;-71
2023/10/24 00:09:52;;;;;;;3.83;1.50;;;12.00;99.90;;;;;;5070695;28;20206;-71
2023/10/24 00:12:17;;;;;;;2.40;1.87;;;12.00;99.90;;;;;;5070610;28;20213;-71
2023/10/24 00:14:43;;;;;;;5.17;2.13;;;12.00;99.90;;;;;;5069181;28;20193;-71
2023/10/24 00:17:08;;;;;;;2.30;2.10;;;12.00;99.90;;;;;;5070323;28;20688;-71
2023/10/24 00:19:34;;;;;;;5.47;1.97;;;12.00;99.90;;;;;;5069129;28;20189;-71
2023/10/24 00:22:00;;;;;;;10.47;3.10;;;12.00;99.90;;;;;;5068793;28;20194;-71
2023/10/24 00:24:27;;;;;;;5.80;2.10;;;11.90;99.90;;;;;;5070510;28;20183;-71
2023/10/24 00:26:52;;;;;;;3.30;2.00;;;11.80;99.90;;;;;;5070497;28;20199;-71
2023/10/24 00:29:18;;;;;;;2.73;2.40;;;11.80;99.90;;;;;;5070449;28;20789;-71
2023/10/24 00:31:43;;;;;;;6.03;2.07;;;11.80;99.90;;;;;;5068955;28;20186;-71
2023/10/24 00:34:12;;;;;;;4.67;2.40;;;11.90;99.90;;;;;;5070235;28;21084;-71
2023/10/24 00:36:41;;;;;;;5.23;1.90;;;11.90;99.90;;;;;;5068714;28;20205;-71
2023/10/24 00:39:08;;;;;;;4.87;2.10;;;11.90;99.90;;;;;;5068476;28;20519;-71
2023/10/24 00:41:34;;;;;;;3.90;1.90;;;11.90;99.90;;;;;;5068539;28;20417;-71
2023/10/24 00:43:59;;;;;;;4.10;2.00;;;11.80;99.90;;;;;;5070034;28;20444;-71
2023/10/24 00:46:26;;;;;;;8.37;2.50;;;11.90;99.90;;;;;;5069698;28;20250;-71
2023/10/24 00:48:52;;;;;;;2.60;1.83;;;11.90;99.90;;;;;;5070007;28;20554;-71
2023/10/24 00:51:18;;;;;;;4.20;1.90;;;11.80;99.90;;;;;;5069950;28;20414;-72
2023/10/24 00:53:44;;;;;;;7.33;2.37;;;11.90;99.90;;;;;;5069467;28;20421;-71
2023/10/24 00:56:11;;;;;;;4.60;2.90;;;11.90;99.90;;;;;;5069760;28;20421;-71
2023/10/24 00:58:38;;;;;;;3.57;2.30;;;11.80;99.90;;;;;;5068158;28;20447;-71
2023/10/24 01:01:12;;;;;;;2.50;2.00;;;11.90;99.90;;;;;;5069603;28;20435;-71
2023/10/24 01:03:39;;;;;;;4.57;2.20;;;11.90;99.90;;;;;;5069689;28;20421;-71
2023/10/24 01:06:09;;;;;;;5.40;2.17;;;11.90;99.90;;;;;;5068134;28;20464;-71
2023/10/24 01:08:36;;;;;;;6.90;4.13;;;11.90;99.90;;;;;;5069573;28;20405;-71
2023/10/24 01:11:02;;;;;;;7.93;3.77;;;11.80;99.90;;;;;;5067761;28;20444;-71
2023/10/24 01:13:28;;;;;;;6.10;3.10;;;11.70;99.90;;;;;;5069413;28;20424;-71
2023/10/24 01:15:53;;;;;;;3.60;3.10;;;11.60;99.90;;;;;;5069415;28;20424;-71
2023/10/24 01:18:19;;;;;;;6.30;3.43;;;11.60;99.90;;;;;;5069129;28;20252;-72
2023/10/24 01:20:44;;;;;;;3.50;3.20;;;11.60;99.90;;;;;;5069339;28;20220;-71
2023/10/24 01:23:10;;;;;;;8.33;3.10;;;11.60;99.90;;;;;;5067845;28;20794;-71
2023/10/24 01:25:39;;;;;;;7.03;3.80;;;11.60;99.90;;;;;;5067490;28;20302;-71
2023/10/24 01:28:05;;;;;;;3.40;3.10;;;11.60;99.90;;;;;;5069224;28;20762;-71
2023/10/24 01:30:31;;;;;;;5.97;3.27;;;11.60;99.90;;;;;;5069123;28;20505;-71
2023/10/24 01:32:57;;;;;;;6.90;4.07;;;11.70;99.90;;;;;;5067662;28;20850;-71
2023/10/24 01:35:22;;;;;;;4.97;3.20;;;11.70;99.90;;;;;;5068974;28;20449;-71
2023/10/24 01:37:48;;;;;;;4.80;2.97;;;11.70;99.90;;;;;;5068868;28;20312;-71
2023/10/24 01:40:13;;;;;;;4.93;2.50;;;11.70;99.90;;;;;;5067691;28;20663;-71
2023/10/24 01:42:39;;;;;;;5.90;3.47;;;11.70;99.90;;;;;;5069084;28;20247;-71
2023/10/24 01:45:05;;;;;;;9.63;4.63;;;11.70;99.90;;;;;;5068900;28;20283;-71
2023/10/24 01:47:31;;;;;;;7.63;3.33;;;11.70;99.90;;;;;;5067453;28;20202;-71
2023/10/24 01:49:57;;;;;;;5.13;3.47;;;11.70;99.90;;;;;;5068770;28;20421;-71
2023/10/24 01:52:23;;;;;;;3.63;2.70;;;11.60;99.90;;;;;;5068763;28;20179;-71
2023/10/24 01:54:48;;;;;;;5.93;4.03;;;11.60;99.90;;;;;;5068610;28;20701;-71
2023/10/24 01:57:15;;;;;;;6.43;4.00;;;11.60;99.90;;;;;;5050471;28;20265;-70
2023/10/24 01:59:40;;;;;;;5.40;3.43;;;11.60;99.90;;;;;;5067388;28;20731;-71
2023/10/24 02:02:06;;;;;;;6.53;3.77;;;11.70;99.90;;;;;;5068492;28;20578;-71
2023/10/24 02:04:32;;;;;;;6.57;4.20;;;11.60;99.90;;;;;;5068416;28;20193;-71
2023/10/24 02:06:57;;;;;;;7.30;4.20;;;11.60;99.90;;;;;;5068471;28;20285;-71
2023/10/24 02:09:23;;;;;;;4.83;4.30;;;11.50;99.90;;;;;;5067126;28;20682;-71
2023/10/24 02:11:48;;;;;;;5.43;3.00;;;11.60;99.90;;;;;;5050991;28;20194;-71
2023/10/24 02:14:14;;;;;;;7.63;3.40;;;11.50;99.90;;;;;;5069342;28;20178;-71
2023/10/24 02:16:40;;;;;;;8.50;3.30;;;11.50;99.90;;;;;;5069045;28;20201;-71
2023/10/24 02:19:05;;;;;;;5.13;2.83;;;11.60;99.90;;;;;;5069280;28;20217;-71
2023/10/24 02:21:31;;;;;;;9.23;3.57;;;11.60;99.90;;;;;;5067878;28;20187;-71
2023/10/24 02:23:57;;;;;;;3.70;2.90;;;11.80;99.90;;;;;;5067760;28;20675;-72
2023/10/24 02:26:23;;;;;;;4.13;3.10;;;11.80;99.90;;;;;;5068919;28;20203;-71
2023/10/24 02:28:48;;;;;;;6.50;2.67;;;11.70;99.90;;;;;;5069066;28;20421;-71
2023/10/24 02:31:14;;;;;;;9.50;3.43;;;11.90;99.90;;;;;;5069020;28;20322;-71
2023/10/24 02:33:40;;;;;;;6.97;3.70;;;11.80;99.90;;;;;;5067581;28;20186;-71
2023/10/24 02:36:07;;;;;;;3.47;2.80;;;11.80;99.90;;;;;;5068971;28;20277;-71
2023/10/24 02:38:33;;;;;;;5.40;3.07;;;11.70;99.90;;;;;;5068936;28;20423;-71
2023/10/24 02:40:59;;;;;;;5.90;3.17;;;11.70;99.90;;;;;;5067777;28;20484;-71
2023/10/24 02:43:24;;;;;;;8.23;4.10;;;11.70;99.90;;;;;;5068897;28;20244;-71
2023/10/24 02:45:50;;;;;;;6.47;3.30;;;11.70;99.90;;;;;;5068960;28;20581;-71
2023/10/24 02:48:15;;;;;;;3.50;2.00;;;11.70;99.90;;;;;;5067391;28;20225;-71
2023/10/24 02:50:44;;;;;;;4.73;3.23;;;11.90;99.90;;;;;;5069138;28;20181;-71
2023/10/24 02:53:09;;;;;;;5.90;4.00;;;12.10;99.90;;;;;;5067523;28;20183;-72
2023/10/24 02:55:35;;;;;;;4.07;3.53;;;12.10;99.90;;;;;;5050597;28;20429;-72
2023/10/24 02:58:01;;;;;;;6.80;3.73;;;12.00;99.90;;;;;;5068492;28;20206;-71
2023/10/24 03:00:27;;;;;;;6.10;4.10;;;11.90;99.90;;;;;;5068409;28;20180;-71
2023/10/24 03:02:52;;;;;;;7.53;4.80;;;11.80;99.90;;;;;;5068119;28;20597;-72
2023/10/24 03:05:18;;;;;;;10.63;5.20;;;11.70;99.90;;;;;;5066380;28;20218;-71
2023/10/24 03:07:44;;;;;;;6.17;4.60;;;11.60;99.90;;;;;;5066578;28;21024;-71
2023/10/24 03:10:09;;;;;;;5.27;4.40;;;11.60;99.90;;;;;;5066490;28;20421;-71
2023/10/24 03:12:35;;;;;;;8.43;5.13;;;11.60;99.90;;;;;;5067961;28;20183;-72
2023/10/24 03:15:00;;;;;;;8.37;4.50;;;11.70;99.90;;;;;;5067931;28;20217;-71
2023/10/24 03:17:26;;;;;;;10.00;5.10;;;11.50;99.90;;;;;;5069241;28;20272;-71
2023/10/24 03:19:52;;;;;;;8.53;4.73;;;11.50;99.90;;;;;;5072021;28;20806;-71
2023/10/24 03:22:18;;;;;;;10.80;4.73;;;11.50;99.90;;;;;;5072084;28;20235;-71
2023/10/24 03:24:43;;;;;;;8.80;4.80;;;11.50;99.90;;;;;;5070281;28;20188;-71
2023/10/24 03:27:12;;;;;;;6.93;4.00;;;11.60;99.90;;;;;;5070114;28;20301;-71
2023/10/24 03:29:40;;;;;;;8.10;4.47;;;11.60;99.90;;;;;;5071804;28;20185;-71
2023/10/24 03:32:06;;;;;;;6.47;4.93;;;11.60;99.90;;;;;;5070581;28;21146;-72
2023/10/24 03:34:34;;;;;;;7.07;5.13;;;11.70;99.90;;;;;;5070632;28;20413;-71
2023/10/24 03:36:59;;;;;;;5.20;3.90;;;11.60;99.90;;;;;;5071630;28;20479;-71
2023/10/24 03:39:25;;;;;;;4.40;4.00;;;11.60;99.90;;;;;;5070156;28;20430;-71
2023/10/24 03:41:51;;;;;;;6.77;4.17;;;11.60;99.90;;;;;;5071780;28;20179;-72
2023/10/24 03:44:16;;;;;;;5.20;4.53;;;11.50;99.90;;;;;;5070484;28;20497;-71
2023/10/24 03:46:42;;;;;;;10.83;4.10;;;11.50;99.90;;;;;;5071766;28;20244;-72
2023/10/24 03:49:08;;;;;;;3.33;3.03;;;11.50;99.90;;;;;;5071970;28;20174;-71
2023/10/24 03:51:33;;;;;;;3.83;2.53;;;11.60;99.90;;;;;;5071884;28;20417;-72
2023/10/24 03:53:59;;;;;;;5.50;2.30;;;11.60;99.90;;;;;;5071826;28;20577;-71
2023/10/24 03:56:26;;;;;;;5.70;3.27;;;11.70;99.90;;;;;;5071669;28;20224;-71
2023/10/24 03:58:52;;;;;;;3.07;2.63;;;11.70;99.90;;;;;;5071734;28;20693;-71
2023/10/24 04:01:17;;;;;;;8.43;2.47;;;11.60;99.90;;;;;;5070087;28;20539;-71
2023/10/24 04:03:43;;;;;;;9.43;2.53;;;11.70;99.90;;;;;;5071601;28;20168;-71
2023/10/24 04:06:12;;;;;;;3.10;1.47;;;11.80;99.90;;;;;;5069961;28;20282;-71
2023/10/24 04:08:38;;;;;;;4.17;1.80;;;12.00;99.90;;;;;;5070078;28;20190;-71
2023/10/24 04:11:04;;;;;;;1.73;1.37;;;12.00;99.90;;;;;;5071468;28;20821;-71
2023/10/24 04:13:29;;;;;;;3.23;1.20;;;12.00;99.90;;;;;;5070179;28;20413;-71
2023/10/24 04:15:59;;;;;;;6.00;1.70;;;12.10;99.90;;;;;;5071448;28;20185;-71
2023/10/24 04:18:26;;;;;;;7.97;1.77;;;12.10;99.90;;;;;;5071437;28;20316;-71
2023/10/24 04:20:52;;;;;;;3.67;1.90;;;12.20;99.90;;;;;;5070835;28;20410;-71
2023/10/24 04:23:18;;;;;;;4.80;1.40;;;12.10;99.90;;;;;;5070084;28;20409;-71
2023/10/24 04:25:43;;;;;;;4.03;1.50;;;12.10;99.90;;;;;;5070118;28;20210;-71
2023/10/24 04:28:09;;;;;;;3.33;1.30;;;12.20;99.90;;;;;;5068729;28;20206;-71
2023/10/24 04:30:38;;;;;;;3.03;1.53;;;11.90;99.90;;;;;;5069533;28;20281;-71
2023/10/24 04:33:04;;;;;;;4.47;1.37;;;12.10;99.90;;;;;;5068085;28;20206;-71
2023/10/24 04:35:29;;;;;;;3.30;1.90;;;12.20;99.90;;;;;;5068096;28;20926;-70
2023/10/24 04:37:55;;;;;;;11.17;2.80;;;12.20;99.90;;;;;;5069524;28;20233;-71
2023/10/24 04:40:21;;;;;;;3.30;1.67;;;12.30;99.90;;;;;;5069708;28;20193;-70
2023/10/24 04:42:50;;;;;;;4.53;3.13;;;12.20;99.90;;;;;;5069744;28;20184;-71
2023/10/24 04:45:15;;;;;;;8.00;2.20;;;12.40;99.90;;;;;;5069602;28;20457;-71
2023/10/24 04:47:41;;;;;;;3.87;1.70;;;12.40;99.90;;;;;;5067969;28;20441;-71
2023/10/24 04:50:07;;;;;;;3.80;1.67;;;12.50;99.90;;;;;;5069870;28;20182;-71
2023/10/24 04:52:32;;;;;;;5.03;2.50;;;12.50;99.90;;;;;;5070143;28;20191;-71
2023/10/24 04:54:58;;;;;;;8.40;2.30;;;12.40;99.90;;;;;;5070047;28;20183;-71
2023/10/24 04:57:24;;;;;;;5.77;2.37;;;12.40;99.90;;;;;;5069634;28;20202;-71
2023/10/24 04:59:49;;;;;;;10.93;2.67;;;12.40;99.90;;;;;;5068448;28;20963;-71
2023/10/24 05:02:15;;;;;;;11.13;5.10;;;12.20;99.90;;;;;;5069087;28;20248;-71
2023/10/24 05:04:40;;;;;;;8.13;4.73;;;12.20;99.90;;;;;;5069073;28;20187;-71
2023/10/24 05:07:06;;;;;;;8.83;4.57;;;12.10;99.90;;;;;;5069021;28;20202;-71
2023/10/24 05:09:31;;;;;;;5.70;4.17;;;12.00;99.90;;;;;;5069193;28;20193;-70
2023/10/24 05:11:57;;;;;;;5.20;4.10;;;12.00;99.90;;;;;;5069529;28;20553;-71
2023/10/24 05:14:23;;;;;;;8.60;3.53;;;11.90;99.90;;;;;;5067874;28;20327;-70
2023/10/24 05:16:48;;;;;;;9.00;3.33;;;12.00;99.90;;;;;;5067901;28;20206;-71
2023/10/24 05:19:14;;;;;;;6.90;3.00;;;12.00;99.90;;;;;;5051753;28;20885;-71
2023/10/24 05:21:39;;;;;;;5.10;1.80;;;12.00;99.90;;;;;;5069485;28;20563;-71
2023/10/24 05:24:05;;;;;;;7.97;3.03;;;12.10;99.90;;;;;;5069333;28;20175;-70
2023/10/24 05:26:31;;;;;;;4.83;2.83;;;12.20;99.90;;;;;;5069105;28;20220;-70
2023/10/24 05:28:57;;;;;;;5.50;3.23;;;12.40;99.90;;;;;;5069199;28;20418;-70
2023/10/24 05:31:22;;;;;;;5.10;3.97;;;12.20;99.90;;;;;;5067881;28;20276;-71
2023/10/24 05:33:49;;;;;;;12.43;3.80;;;12.10;99.90;;;;;;5068739;28;20559;-71
2023/10/24 05:36:17;;;;;;;6.67;4.03;;;12.00;99.90;;;;;;5068714;28;20183;-70
2023/10/24 05:38:43;;;;;;;8.83;2.70;;;11.90;99.90;;;;;;5068603;28;21034;-71
2023/10/24 05:41:08;;;;;;;4.83;2.83;;;12.00;99.90;;;;;;5068678;28;20504;-71
2023/10/24 05:43:36;;;;;;;4.63;2.20;;;12.00;99.90;;;;;;5067612;28;20952;-70
2023/10/24 05:46:03;;;;;;;6.87;1.80;;;12.10;99.90;;;;;;5050946;28;20268;-70
2023/10/24 05:48:28;;;;;;;10.53;1.63;;;12.20;99.90;;;;;;5067484;28;20444;-70
2023/10/24 05:50:54;;;;;;;4.20;1.80;;;12.40;99.90;;;;;;5069069;28;20439;-71
2023/10/24 05:53:20;;;;;;;3.80;2.00;;;12.50;99.90;;;;;;5068822;28;20175;-71
2023/10/24 05:55:45;;;;;;;14.50;2.13;;;12.60;99.90;;;;;;5068875;28;20709;-71
2023/10/24 05:58:11;;;;;;;4.60;2.23;;;12.70;99.90;;;;;;5067396;28;20209;-71
2023/10/24 06:00:36;;;;;;;4.10;2.37;;;12.70;99.90;;;;;;5067384;28;20225;-71
2023/10/24 06:03:02;;;;;;;8.30;2.13;;;12.80;99.90;;;;;;5068498;28;20230;-71
2023/10/24 06:05:28;;;;;;;15.53;2.30;;;12.90;99.90;;;;;;5068198;28;20284;-71
2023/10/24 06:07:54;;;;;;;16.13;2.63;;;13.00;99.90;;;;;;5066562;28;20211;-71
2023/10/24 06:10:19;;;;;;;2.50;1.70;;;13.00;99.90;;;;;;5068180;28;20183;-71
2023/10/24 06:12:45;;;;;;;7.57;2.03;;;13.10;99.90;;;;;;5068112;28;20588;-71
2023/10/24 06:15:11;;;;;;;3.20;2.03;;;13.20;99.90;;;;;;5068301;28;20180;-71
2023/10/24 06:17:36;;;;;;;3.53;2.00;;;13.30;99.90;;;;;;5066841;28;20207;-71
2023/10/24 06:20:02;;;;;;;5.50;1.90;;;13.40;99.90;;;;;;5066750;28;20432;-71
2023/10/24 06:22:31;;;;;;;4.70;2.10;;;13.50;99.90;;;;;;5068216;28;20677;-71
2023/10/24 06:25:00;;;;;;;4.53;1.53;;;13.50;99.90;;;;;;5067912;28;20465;-71
2023/10/24 06:27:26;;;;;;;3.37;2.10;;;13.50;99.90;;;;;;5067767;28;20963;-71
2023/10/24 06:29:52;;;;;;;6.93;2.17;;;13.50;99.90;;;;;;5067755;28;20415;-71
2023/10/24 06:32:18;;;;;;;2.90;1.83;;;13.50;99.90;;;;;;5067670;28;20983;-71
2023/10/24 06:34:43;;;;;;;3.00;1.87;;;13.50;99.90;;;;;;5067714;28;20175;-71
2023/10/24 06:37:09;;;;;;;11.27;2.70;;;13.40;99.90;;;;;;5066600;28;20199;-70
2023/10/24 06:39:34;;;;;;;7.40;2.20;;;13.40;99.90;;;;;;5068015;28;20175;-71
2023/10/24 06:42:00;;;;;;;2.27;2.07;;;13.40;99.90;;;;;;5068442;28;20179;-71
2023/10/24 06:44:27;;;;;;;7.23;2.93;;;13.40;99.90;;;;;;5068268;28;20183;-71
2023/10/24 06:46:53;;;;;;;5.53;3.67;;;13.40;99.90;;;;;;5068154;28;20582;-71
2023/10/24 06:49:19;;;;;;;5.20;3.33;;;13.30;99.90;;;;;;5066741;28;20414;-71
2023/10/24 06:51:44;;;;;;;7.30;3.70;;;13.00;99.90;;;;;;5068550;28;20211;-71
2023/10/24 06:54:10;;;;;;;8.63;5.03;;;12.70;99.90;;;;;;5072053;28;20188;-71
2023/10/24 06:56:35;;;;;;;12.23;4.10;;;12.60;99.90;;;;;;5071986;28;20624;-71
2023/10/24 06:59:01;;;;;;;17.23;5.47;;;12.50;99.90;;;;;;5072135;28;20258;-71
2023/10/24 07:01:26;;;;;;;12.63;4.27;;;12.50;99.90;;;;;;5070476;28;20221;-71
2023/10/24 07:03:54;;;;;;;12.33;3.53;;;12.50;99.90;;;;;;5072126;28;20194;-71
2023/10/24 07:06:20;;;;;;;4.40;3.20;;;12.60;99.90;;;;;;5070406;28;20214;-71
2023/10/24 07:08:48;;;;;;;12.83;4.10;;;12.60;99.90;;;;;;5071898;28;20428;-71
2023/10/24 07:11:14;;;;;;;11.57;4.40;;;12.70;99.90;;;;;;5072129;28;20171;-71
2023/10/24 07:13:40;;;;;;;12.93;4.37;;;12.60;99.90;;;;;;5071940;28;20405;-71
2023/10/24 07:16:16;;;;;;;10.10;3.10;;;12.60;99.90;;;;;;5071989;28;20916;-71
2023/10/24 07:18:41;;;;;;;8.80;2.80;;;12.80;99.90;;;;;;5071553;28;20183;-71
2023/10/24 07:21:08;;;;;;;8.67;3.47;;;13.00;99.90;;;;;;5071655;28;20433;-71
2023/10/24 07:23:33;;;;;;;23.90;7.67;;;13.00;99.90;;;;;;5070030;28;20183;-71
2023/10/24 07:25:59;;;;;;;17.30;5.87;;;12.90;99.90;;;;;;5069695;28;20507;-71
2023/10/24 07:28:25;;;;;;;19.93;5.50;;;12.90;99.90;;;;;;5053077;28;20230;-71
2023/10/24 07:30:54;;;;;;;30.20;6.83;;;12.90;99.90;;;;;;5071309;28;20283;-71
2023/10/24 07:33:20;;;;;;;13.87;5.30;;;12.90;99.90;;;;;;5069657;28;20224;-71
2023/10/24 07:35:48;;;;;;;31.07;5.90;;;12.70;99.90;;;;;;5071395;28;20420;-71
2023/10/24 07:38:13;;;;;;;9.93;4.87;;;12.60;99.90;;;;;;5069915;28;20821;-71
2023/10/24 07:40:39;;;;;;;14.23;5.93;;;12.60;99.90;;;;;;5071030;28;20421;-71
2023/10/24 07:43:05;;;;;;;16.70;5.20;;;12.40;99.90;;;;;;5071013;28;20234;-71
2023/10/24 07:45:31;;;;;;;9.30;5.23;;;12.30;99.90;;;;;;5069621;28;20471;-71
2023/10/24 07:47:56;;;;;;;8.73;5.00;;;12.10;99.90;;;;;;5071228;28;20256;-71
2023/10/24 07:50:22;;;;;;;7.63;4.67;;;12.20;99.90;;;;;;5071352;28;20541;-71
2023/10/24 07:52:48;;;;;;;9.93;6.13;;;12.10;99.90;;;;;;5071146;28;20209;-71
2023/10/24 07:55:13;;;;;;;13.33;6.40;;;12.10;99.90;;;;;;5071273;28;20194;-72
2023/10/24 07:57:39;;;;;;;13.00;5.97;;;12.10;99.90;;;;;;5070994;28;20309;-70
2023/10/24 08:00:07;;;;;;;11.83;6.00;;;12.10;99.90;;;;;;5069540;28;20187;-71
2023/10/24 08:02:33;;;;;;;7.33;5.40;;;12.10;99.90;;;;;;5069920;28;20201;-71
2023/10/24 08:04:59;;;;;;;9.20;5.20;;;12.00;99.90;;;;;;5071015;28;20449;-71
2023/10/24 08:07:24;;;;;;;8.20;5.97;;;12.10;99.90;;;;;;5070933;28;20649;-70
2023/10/24 08:09:50;;;;;;;14.30;7.07;;;12.10;99.90;;;;;;5069553;28;20555;-71
2023/10/24 08:12:16;;;;;;;8.40;6.23;;;12.00;99.90;;;;;;5070837;28;20251;-71
2023/10/24 08:14:41;;;;;;;7.93;6.20;;;12.10;99.90;;;;;;5070735;28;20672;-71
2023/10/24 08:17:07;;;;;;;8.30;7.40;;;12.10;99.90;;;;;;5069420;28;20203;-71
2023/10/24 08:19:32;;;;;;;8.07;6.53;;;12.20;99.90;;;;;;5070742;28;20426;-71
2023/10/24 08:21:58;;;;;;;10.20;6.20;;;12.20;99.90;;;;;;5069238;28;20192;-71
2023/10/24 08:24:23;;;;;;;9.67;5.63;;;12.20;99.90;;;;;;5070389;28;20174;-71
2023/10/24 08:26:49;;;;;;;9.33;5.30;;;12.20;99.90;;;;;;5070199;28;20241;-72
2023/10/24 08:29:15;;;;;;;12.03;6.03;;;12.20;99.90;;;;;;5070628;28;20188;-71
2023/10/24 08:31:40;;;;;;;6.90;5.70;;;12.30;99.90;;;;;;5069184;28;20182;-71
2023/10/24 08:34:06;;;;;;;8.00;5.03;;;12.20;99.90;;;;;;5070344;28;20179;-71
2023/10/24 08:36:32;;;;;;;15.23;6.50;;;12.20;99.90;;;;;;5068911;28;20203;-71
2023/10/24 08:38:58;;;;;;;6.30;5.00;;;12.20;99.90;;;;;;5070532;28;20425;-72
2023/10/24 08:41:24;;;;;;;7.30;5.30;;;12.30;99.90;;;;;;5070812;28;20209;-71
2023/10/24 08:43:50;;;;;;;7.70;5.53;;;12.30;99.90;;;;;;5070336;28;20425;-71
2023/10/24 08:46:15;;;;;;;7.53;5.77;;;12.30;99.90;;;;;;5069893;28;20312;-71
2023/10/24 08:48:41;;;;;;;13.10;6.20;;;12.30;99.90;;;;;;5070213;28;21245;-71
2023/10/24 08:51:07;;;;;;;7.07;5.57;;;12.30;99.90;;;;;;5070072;28;20203;-71
2023/10/24 08:53:32;;;;;;;27.03;16.33;;;12.30;99.90;;;;;;5069993;28;20175;-71
2023/10/24 08:55:59;;;;;;;8.93;6.60;;;12.30;99.90;;;;;;5069863;28;20183;-72
2023/10/24 08:58:27;;;;;;;8.83;5.10;;;12.20;99.90;;;;;;5069644;28;20201;-71
2023/10/24 09:00:53;;;;;;;9.30;5.80;;;12.10;99.90;;;;;;5069766;28;20413;-71
2023/10/24 09:03:19;;;;;;;8.70;5.53;;;12.10;99.90;;;;;;5069956;28;20986;-72
2023/10/24 09:05:46;;;;;;;7.73;4.83;;;12.20;99.90;;;;;;5069732;28;20453;-71
2023/10/24 09:08:13;;;;;;;6.13;4.73;;;12.20;99.90;;;;;;5069707;28;20519;-71
2023/10/24 09:10:39;;;;;;;10.30;3.27;;;12.30;99.90;;;;;;5068434;28;20420;-71
2023/10/24 09:13:07;;;;;;;4.13;2.67;;;12.40;99.90;;;;;;5068340;28;20414;-70
2023/10/24 09:15:36;;;;;;;6.57;3.53;;;12.50;99.90;;;;;;5069288;28;20712;-71
2023/10/24 09:18:03;;;;;;;11.87;3.33;;;12.50;99.90;;;;;;5069581;28;20939;-71
2023/10/24 09:20:33;;;;;;;4.07;2.87;;;12.60;99.90;;;;;;5067923;28;20453;-70
2023/10/24 09:23:09;;;;;;;4.80;2.70;;;12.60;99.90;;;;;;5069345;28;20417;-71
2023/10/24 09:25:35;;;;;;;5.83;2.90;;;12.70;99.90;;;;;;5069061;28;20883;-71
2023/10/24 09:28:17;;;;;;;6.77;3.60;;;12.60;99.90;;;;;;5068770;28;20437;-71
2023/10/24 09:30:44;;;;;;;4.07;2.73;;;12.70;99.90;;;;;;5068882;28;20449;-70
2023/10/24 09:33:10;;;;;;;6.30;2.30;;;12.70;99.90;;;;;;5068853;28;20409;-71
2023/10/24 09:35:37;;;;;;;6.80;2.80;;;12.70;99.90;;;;;;5068810;28;21047;-71
2023/10/24 09:38:07;;;;;;;8.83;2.40;;;12.70;99.90;;;;;;5067095;28;20206;-71
2023/10/24 09:40:37;;;;;;;3.70;1.53;;;12.80;99.90;;;;;;5068850;28;20420;-71
2023/10/24 09:43:10;;;;;;;1.87;1.37;;;12.90;99.90;;;;;;5068447;28;20512;-71
2023/10/24 09:45:39;;;;;;;2.30;1.40;;;12.90;99.90;;;;;;5068755;28;20445;-71
2023/10/24 09:48:07;;;;;;;1.83;1.13;;;12.90;99.90;;;;;;5068911;28;20448;-72
2023/10/24 09:50:33;;;;;;;8.33;1.50;;;13.00;99.90;;;;;;5068955;28;20413;-72
2023/10/24 09:53:00;;;;;;;1.57;1.47;;;13.00;99.90;;;;;;5069081;28;20492;-70
2023/10/24 09:55:26;;;;;;;4.43;1.50;;;13.00;99.90;;;;;;5067858;28;20424;-70
2023/10/24 09:57:55;;;;;;;4.30;1.60;;;13.00;99.90;;;;;;5068882;28;20840;-70
2023/10/24 10:00:21;;;;;;;4.50;2.00;;;13.00;99.90;;;;;;5068768;28;20935;-70
2023/10/24 10:02:48;;;;;;;12.97;2.07;;;13.00;99.90;;;;;;5068292;28;20456;-70
2023/10/24 10:05:14;;;;;;;2.90;1.03;;;13.00;99.90;;;;;;5068558;28;20210;-70
2023/10/24 10:07:40;;;;;;;1.57;1.20;;;13.10;99.90;;;;;;5068527;28;20432;-72
2023/10/24 10:10:08;;;;;;;1.53;0.73;;;13.10;99.90;;;;;;5068838;28;20419;-71
2023/10/24 10:12:34;;;;;;;2.37;1.23;;;13.10;99.90;;;;;;5069271;28;20409;-71
2023/10/24 10:15:00;;;;;;;1.40;0.93;;;13.10;99.90;;;;;;5069240;28;20942;-71
2023/10/24 10:17:48;;;;;;;2.40;1.33;;;13.10;99.90;;;;;;5069051;28;20457;-71
2023/10/24 10:20:22;;;;;;;2.67;1.13;;;13.10;99.90;;;;;;5069227;28;20175;-70
2023/10/24 10:23:10;;;;;;;3.43;1.27;;;13.10;99.90;;;;;;5069230;28;20762;-71
2023/10/24 10:25:55;;;;;;;4.90;1.30;;;13.10;99.90;;;;;;5068013;28;20453;-71
2023/10/24 10:28:54;;;;;;;4.20;1.87;;;13.10;99.90;;;;;;5054532;28;20477;-71
2023/10/24 10:31:33;;;;;;;2.27;1.50;;;12.90;99.90;;;;;;5068177;28;20412;-71
2023/10/24 10:33:58;;;;;;;5.13;1.47;;;12.90;99.90;;;;;;5068221;28;20489;-70
2023/10/24 10:36:27;;;;;;;3.40;2.00;;;12.90;99.90;;;;;;5067957;28;20557;-70
2023/10/24 10:38:59;;;;;;;4.97;1.90;;;12.80;99.90;;;;;;5067840;28;20193;-71
2023/10/24 10:41:26;;;;;;;2.07;1.90;;;12.80;99.90;;;;;;5067883;28;20445;-71
2023/10/24 10:43:59;;;;;;;3.80;2.10;;;12.80;99.90;;;;;;5066241;28;20499;-71
2023/10/24 10:46:26;;;;;;;2.03;1.83;;;12.80;99.90;;;;;;5067980;28;20460;-71
2023/10/24 10:49:02;;;;;;;5.83;1.97;;;12.80;99.90;;;;;;5068030;28;20420;-71
2023/10/24 10:51:30;;;;;;;2.13;1.60;;;12.80;99.90;;;;;;5066709;28;20467;-71
2023/10/24 10:54:21;;;;;;;4.80;1.97;;;12.90;99.90;;;;;;5066500;28;20470;-71
2023/10/24 10:56:48;;;;;;;2.80;1.60;;;12.90;99.90;;;;;;5067939;28;20428;-71
2023/10/24 10:59:43;;;;;;;4.60;2.30;;;12.90;99.90;;;;;;5068120;28;20450;-71
2023/10/24 11:02:46;;;;;;;4.90;1.53;;;12.90;99.90;;;;;;5067901;28;20430;-71
2023/10/24 11:05:48;;;;;;;18.33;1.40;;;13.00;99.90;;;;;;5066456;28;20456;-71
2023/10/24 11:08:18;;;;;;;2.83;1.20;;;13.00;99.90;;;;;;5067919;28;20435;-71
2023/10/24 11:10:54;;;;;;;3.23;1.10;;;13.00;99.90;;;;;;5068004;28;21049;-71
2023/10/24 11:13:42;;;;;;;2.80;1.40;;;13.10;99.90;;;;;;5067565;28;20443;-71
2023/10/24 11:16:10;;;;;;;2.57;1.23;;;13.00;99.90;;;;;;5067249;28;20569;-71
2023/10/24 11:18:36;;;;;;;1.10;0.60;;;13.10;99.90;;;;;;5067187;28;20476;-71
2023/10/24 11:21:04;;;;;;;1.77;0.67;;;13.10;99.90;;;;;;5065685;28;20417;-71
2023/10/24 11:23:31;;;;;;;3.00;0.77;;;13.10;99.90;;;;;;5067131;28;20441;-71
2023/10/24 11:25:58;;;;;;;1.10;0.60;;;13.20;99.90;;;;;;5065306;28;20465;-71
2023/10/24 11:28:27;;;;;;;1.13;0.80;;;13.10;99.90;;;;;;5066982;28;20437;-71
2023/10/24 11:30:54;;;;;;;1.50;0.70;;;13.10;99.90;;;;;;5066811;28;20502;-71
2023/10/24 11:33:20;;;;;;;3.13;0.83;;;13.10;99.90;;;;;;5065742;28;20937;-71
2023/10/24 11:35:46;;;;;;;1.10;0.77;;;13.10;99.90;;;;;;5066880;28;20452;-71
2023/10/24 11:38:14;;;;;;;1.63;1.23;;;13.10;99.90;;;;;;5069491;28;20316;-71
2023/10/24 11:40:41;;;;;;;2.27;0.70;;;13.10;99.90;;;;;;5070855;28;20448;-71
2023/10/24 11:43:07;;;;;;;2.60;0.83;;;13.20;99.90;;;;;;5069267;28;20468;-71
2023/10/24 11:45:36;;;;;;;2.93;0.70;;;13.10;99.90;;;;;;5070503;28;20476;-71
2023/10/24 11:48:01;;;;;;;1.40;0.77;;;13.10;99.90;;;;;;5070608;28;20429;-72
2023/10/24 11:51:00;;;;;;;3.47;0.73;;;13.20;99.90;;;;;;5070522;28;20447;-71
2023/10/24 11:53:26;;;;;;;1.57;0.60;;;13.10;99.90;;;;;;5055261;28;20995;-71
2023/10/24 11:55:52;;;;;;;2.37;0.60;;;13.10;99.90;;;;;;5070531;28;20423;-71
2023/10/24 11:58:20;;;;;;;1.43;0.70;;;13.10;99.90;;;;;;5070288;28;20204;-71
2023/10/24 12:00:45;;;;;;;0.90;0.60;;;13.10;99.90;;;;;;5070577;28;20441;-71
2023/10/24 12:03:12;;;;;;;1.67;0.80;;;13.10;99.90;;;;;;5070518;28;21149;-71
2023/10/24 12:05:50;;;;;;;1.80;0.80;;;13.10;99.90;;;;;;5070463;28;21205;-71
2023/10/24 12:08:20;;;;;;;1.10;0.53;;;13.10;99.90;;;;;;5068714;28;20475;-72
2023/10/24 12:10:53;;;;;;;0.80;0.50;;;13.10;99.90;;;;;;5070404;28;20789;-71
2023/10/24 12:13:20;;;;;;;2.30;0.70;;;13.10;99.90;;;;;;5070324;28;20958;-71
2023/10/24 12:15:47;;;;;;;0.90;0.70;;;13.10;99.90;;;;;;5070248;28;20430;-71
2023/10/24 12:18:12;;;;;;;1.37;0.90;;;13.10;99.90;;;;;;5070019;28;20799;-71
2023/10/24 12:20:38;;;;;;;1.10;0.70;;;13.10;99.90;;;;;;5070360;28;20483;-71
2023/10/24 12:23:03;;;;;;;0.93;0.63;;;13.00;99.90;;;;;;5070309;28;20256;-71
2023/10/24 12:25:30;;;;;;;2.00;0.70;;;13.00;99.90;;;;;;5068805;28;20214;-72
2023/10/24 12:27:57;;;;;;;1.90;0.60;;;13.00;99.90;;;;;;5070038;28;20207;-71
2023/10/24 12:30:22;;;;;;;1.10;0.70;;;13.00;99.90;;;;;;5068922;28;20417;-71
2023/10/24 12:32:48;;;;;;;1.43;0.60;;;13.00;99.90;;;;;;5069914;28;20425;-70
2023/10/24 12:35:14;;;;;;;1.43;0.93;;;13.00;99.90;;;;;;5068781;28;20193;-71
2023/10/24 12:37:39;;;;;;;2.13;0.50;;;13.00;99.90;;;;;;5069418;28;20201;-70
2023/10/24 12:40:05;;;;;;;1.10;0.63;;;12.90;99.90;;;;;;5069501;28;20290;-70
2023/10/24 12:42:33;;;;;;;0.90;0.70;;;12.80;99.90;;;;;;5069541;28;20232;-70
2023/10/24 12:44:59;;;;;;;2.93;2.67;;;12.90;99.90;;;;;;5068240;28;20861;-70